Pinetown, South Africa
Current Conditions -  °F | °C
As of 6:00 AM on Wednesday 28 Jan 2015 (Local Time) from FALE Reporting Station
Light Rain Light Rain  
Wind Chill: 70°   Ceiling: 2000
Heat Index: 70°   Visibility: 4mi
Dew Point: 64°   Wind: 9mph
Humidity: 83%   Direction: 240°WSW
Pressure: 29.97"   Gusts: NA
Location:  29.76°S, 30.83°E
Report Text: FALE 280400Z 24008KT 7000 -RA OVC020 21/18 Q1015 NOSIG
Loading
Personal Weather Stations






























Interactive Weather Map New forecast layout! Learn more

10-Day Weather Forecast

Advertisements
Track Severe Weather on mobile